Calais, Maine
Current Conditions -  °F | °C
As of 1:00 PM on Thursday 30 Oct 2014 (Local Time) from CYFC Reporting Station
Few Clouds Few Clouds  
Wind Chill: 50°   Ceiling: Unl
Heat Index: 50°   Visibility: 9mi
Dew Point: 37°   Wind: 8mph
Humidity: 62%   Direction: 290°WNW
Pressure: 29.81"   Gusts: NA
Location:  45.18°N, 67.28°W
Report Text: CYFC 301700Z AUTO 29007KT 270V330 9SM FEW034 10/03 A2981 RMK SLP094
Loading
Personal Weather Stations






























Interactive Weather Map
Tropical Storm Tracking
New forecast layout! Learn more

10-Day Weather Forecast

Advertisements
Track Severe Weather on mobile